sensor_id;sensor_type;location;lat;lon;timestamp;temperature;humidity
15556;DHT22;7879;48.660;9.116;2022-11-25T00:01:09;0.30;99.90
15556;DHT22;7879;48.660;9.116;2022-11-25T00:03:38;0.20;99.90
15556;DHT22;7879;48.660;9.116;2022-11-25T00:06:18;0.20;99.90
15556;DHT22;7879;48.660;9.116;2022-11-25T00:08:47;0.20;99.90
15556;DHT22;7879;48.660;9.116;2022-11-25T00:11:15;0.10;99.90
15556;DHT22;7879;48.660;9.116;2022-11-25T00:13:44;0.20;99.90
15556;DHT22;7879;48.660;9.116;2022-11-25T00:16:13;0.20;99.90
15556;DHT22;7879;48.660;9.116;2022-11-25T00:18:45;0.20;99.90
15556;DHT22;7879;48.660;9.116;2022-11-25T00:21:14;0.20;99.90
15556;DHT22;7879;48.660;9.116;2022-11-25T00:23:41;0.10;99.90
15556;DHT22;7879;48.660;9.116;2022-11-25T00:26:17;0.10;99.90
15556;DHT22;7879;48.660;9.116;2022-11-25T00:28:45;0.10;99.90
15556;DHT22;7879;48.660;9.116;2022-11-25T00:31:21;0.20;99.90
15556;DHT22;7879;48.660;9.116;2022-11-25T00:33:48;0.10;99.90
15556;DHT22;7879;48.660;9.116;2022-11-25T00:36:35;0.10;99.90
15556;DHT22;7879;48.660;9.116;2022-11-25T00:39:22;0.00;99.90
15556;DHT22;7879;48.660;9.116;2022-11-25T00:41:50;0.10;99.90
15556;DHT22;7879;48.660;9.116;2022-11-25T00:44:35;0.10;99.90
15556;DHT22;7879;48.660;9.116;2022-11-25T00:49:38;0.10;99.90
15556;DHT22;7879;48.660;9.116;2022-11-25T00:52:08;0.10;99.90
15556;DHT22;7879;48.660;9.116;2022-11-25T00:54:35;0.10;99.90
15556;DHT22;7879;48.660;9.116;2022-11-25T00:57:02;0.10;99.90
15556;DHT22;7879;48.660;9.116;2022-11-25T00:59:29;0.10;99.90
15556;DHT22;7879;48.660;9.116;2022-11-25T01:01:56;0.00;99.90
15556;DHT22;7879;48.660;9.116;2022-11-25T01:04:23;0.00;99.90
15556;DHT22;7879;48.660;9.116;2022-11-25T01:06:50;0.00;99.90
15556;DHT22;7879;48.660;9.116;2022-11-25T01:09:16;0.00;99.90
15556;DHT22;7879;48.660;9.116;2022-11-25T01:11:43;0.10;99.90
15556;DHT22;7879;48.660;9.116;2022-11-25T01:14:10;0.10;99.90
15556;DHT22;7879;48.660;9.116;2022-11-25T01:16:37;0.10;99.90
15556;DHT22;7879;48.660;9.116;2022-11-25T01:19:04;0.10;99.90
15556;DHT22;7879;48.660;9.116;2022-11-25T01:21:32;0.10;99.90
15556;DHT22;7879;48.660;9.116;2022-11-25T01:24:01;0.10;99.90
15556;DHT22;7879;48.660;9.116;2022-11-25T01:26:28;0.20;99.90
15556;DHT22;7879;48.660;9.116;2022-11-25T01:28:58;0.20;99.90
15556;DHT22;7879;48.660;9.116;2022-11-25T01:31:27;0.20;99.90
15556;DHT22;7879;48.660;9.116;2022-11-25T01:34:00;0.20;99.90
15556;DHT22;7879;48.660;9.116;2022-11-25T01:36:27;0.30;99.90
15556;DHT22;7879;48.660;9.116;2022-11-25T01:38:57;0.30;99.90
15556;DHT22;7879;48.660;9.116;2022-11-25T01:41:27;0.30;99.90
15556;DHT22;7879;48.660;9.116;2022-11-25T01:44:04;0.30;99.90
15556;DHT22;7879;48.660;9.116;2022-11-25T01:46:45;0.30;99.90
15556;DHT22;7879;48.660;9.116;2022-11-25T01:54:24;0.30;99.90
15556;DHT22;7879;48.660;9.116;2022-11-25T01:57:04;0.40;99.90
15556;DHT22;7879;48.660;9.116;2022-11-25T01:59:33;0.40;99.90
15556;DHT22;7879;48.660;9.116;2022-11-25T02:02:01;0.40;99.90
15556;DHT22;7879;48.660;9.116;2022-11-25T02:04:32;0.40;99.90
15556;DHT22;7879;48.660;9.116;2022-11-25T02:07:06;0.40;99.90
15556;DHT22;7879;48.660;9.116;2022-11-25T02:09:34;0.30;99.90
15556;DHT22;7879;48.660;9.116;2022-11-25T02:12:03;0.40;99.90
15556;DHT22;7879;48.660;9.116;2022-11-25T02:14:30;0.40;99.90
15556;DHT22;7879;48.660;9.116;2022-11-25T02:16:59;0.40;99.90
15556;DHT22;7879;48.660;9.116;2022-11-25T02:25:37;0.40;99.90
15556;DHT22;7879;48.660;9.116;2022-11-25T02:30:34;0.30;99.90
15556;DHT22;7879;48.660;9.116;2022-11-25T02:33:01;0.40;99.90
15556;DHT22;7879;48.660;9.116;2022-11-25T02:35:35;0.30;99.90
15556;DHT22;7879;48.660;9.116;2022-11-25T02:40:48;0.30;99.90
15556;DHT22;7879;48.660;9.116;2022-11-25T02:43:15;0.30;99.90
15556;DHT22;7879;48.660;9.116;2022-11-25T02:46:04;0.30;99.90
15556;DHT22;7879;48.660;9.116;2022-11-25T02:48:33;0.20;99.90
15556;DHT22;7879;48.660;9.116;2022-11-25T02:51:22;0.20;99.90
15556;DHT22;7879;48.660;9.116;2022-11-25T02:53:49;0.20;99.90
15556;DHT22;7879;48.660;9.116;2022-11-25T02:56:18;0.20;99.90
15556;DHT22;7879;48.660;9.116;2022-11-25T02:58:45;0.20;99.90
15556;DHT22;7879;48.660;9.116;2022-11-25T03:01:12;0.20;99.90
15556;DHT22;7879;48.660;9.116;2022-11-25T03:03:39;0.20;99.90
15556;DHT22;7879;48.660;9.116;2022-11-25T03:06:06;0.20;99.90
15556;DHT22;7879;48.660;9.116;2022-11-25T03:08:33;0.10;99.90
15556;DHT22;7879;48.660;9.116;2022-11-25T03:10:59;0.10;99.90
15556;DHT22;7879;48.660;9.116;2022-11-25T03:13:26;0.10;99.90
15556;DHT22;7879;48.660;9.116;2022-11-25T03:15:53;0.10;99.90
15556;DHT22;7879;48.660;9.116;2022-11-25T03:18:20;0.20;99.90
15556;DHT22;7879;48.660;9.116;2022-11-25T03:20:51;0.10;99.90
15556;DHT22;7879;48.660;9.116;2022-11-25T03:23:18;0.10;99.90
15556;DHT22;7879;48.660;9.116;2022-11-25T03:25:45;0.10;99.90
15556;DHT22;7879;48.660;9.116;2022-11-25T03:28:12;0.10;99.90
15556;DHT22;7879;48.660;9.116;2022-11-25T03:30:39;0.20;99.90
15556;DHT22;7879;48.660;9.116;2022-11-25T03:33:06;0.20;99.90
15556;DHT22;7879;48.660;9.116;2022-11-25T03:35:33;0.20;99.90
15556;DHT22;7879;48.660;9.116;2022-11-25T03:37:59;0.10;99.90
15556;DHT22;7879;48.660;9.116;2022-11-25T03:40:26;0.10;99.90
15556;DHT22;7879;48.660;9.116;2022-11-25T03:42:53;0.00;99.90
15556;DHT22;7879;48.660;9.116;2022-11-25T03:45:20;0.10;99.90
15556;DHT22;7879;48.660;9.116;2022-11-25T03:47:46;0.10;99.90
15556;DHT22;7879;48.660;9.116;2022-11-25T03:50:14;0.10;99.90
15556;DHT22;7879;48.660;9.116;2022-11-25T03:52:41;0.10;99.90
15556;DHT22;7879;48.660;9.116;2022-11-25T03:55:09;0.10;99.90
15556;DHT22;7879;48.660;9.116;2022-11-25T03:57:39;0.10;99.90
15556;DHT22;7879;48.660;9.116;2022-11-25T04:00:06;0.10;99.90
15556;DHT22;7879;48.660;9.116;2022-11-25T04:02:33;0.20;99.90
15556;DHT22;7879;48.660;9.116;2022-11-25T04:05:00;0.20;99.90
15556;DHT22;7879;48.660;9.116;2022-11-25T04:07:28;0.30;99.90
15556;DHT22;7879;48.660;9.116;2022-11-25T04:09:55;0.20;99.90
15556;DHT22;7879;48.660;9.116;2022-11-25T04:12:22;0.20;99.90
15556;DHT22;7879;48.660;9.116;2022-11-25T04:15:08;0.10;99.90
15556;DHT22;7879;48.660;9.116;2022-11-25T04:17:35;0.20;99.90
15556;DHT22;7879;48.660;9.116;2022-11-25T04:20:02;0.10;99.90
15556;DHT22;7879;48.660;9.116;2022-11-25T04:22:29;0.10;99.90
15556;DHT22;7879;48.660;9.116;2022-11-25T04:24:56;0.20;99.90
15556;DHT22;7879;48.660;9.116;2022-11-25T04:27:23;0.10;99.90
15556;DHT22;7879;48.660;9.116;2022-11-25T04:29:49;0.10;99.90
15556;DHT22;7879;48.660;9.116;2022-11-25T04:32:16;0.10;99.90
15556;DHT22;7879;48.660;9.116;2022-11-25T04:34:43;0.10;99.90
15556;DHT22;7879;48.660;9.116;2022-11-25T04:37:10;0.20;99.90
15556;DHT22;7879;48.660;9.116;2022-11-25T04:39:36;0.30;99.90
15556;DHT22;7879;48.660;9.116;2022-11-25T04:42:03;0.30;99.90
15556;DHT22;7879;48.660;9.116;2022-11-25T04:44:48;0.30;99.90
15556;DHT22;7879;48.660;9.116;2022-11-25T04:47:35;0.30;99.90
15556;DHT22;7879;48.660;9.116;2022-11-25T04:50:04;0.30;99.90
15556;DHT22;7879;48.660;9.116;2022-11-25T04:52:31;0.30;99.90
15556;DHT22;7879;48.660;9.116;2022-11-25T04:54:59;0.30;99.90
15556;DHT22;7879;48.660;9.116;2022-11-25T04:57:26;0.20;99.90
15556;DHT22;7879;48.660;9.116;2022-11-25T04:59:53;0.20;99.90
15556;DHT22;7879;48.660;9.116;2022-11-25T05:02:24;0.10;99.90
15556;DHT22;7879;48.660;9.116;2022-11-25T05:04:55;0.10;99.90
15556;DHT22;7879;48.660;9.116;2022-11-25T05:07:23;0.10;99.90
15556;DHT22;7879;48.660;9.116;2022-11-25T05:09:50;0.10;99.90
15556;DHT22;7879;48.660;9.116;2022-11-25T05:12:20;0.00;99.90
15556;DHT22;7879;48.660;9.116;2022-11-25T05:14:47;0.00;99.90
15556;DHT22;7879;48.660;9.116;2022-11-25T05:17:17;0.00;99.90
15556;DHT22;7879;48.660;9.116;2022-11-25T05:19:44;0.00;99.90
15556;DHT22;7879;48.660;9.116;2022-11-25T05:22:13;0.00;99.90
15556;DHT22;7879;48.660;9.116;2022-11-25T05:24:40;-0.10;99.90
15556;DHT22;7879;48.660;9.116;2022-11-25T05:27:07;-0.20;99.90
15556;DHT22;7879;48.660;9.116;2022-11-25T05:29:34;-0.20;99.90
15556;DHT22;7879;48.660;9.116;2022-11-25T05:32:01;-0.20;99.90
15556;DHT22;7879;48.660;9.116;2022-11-25T05:34:28;-0.30;99.90
15556;DHT22;7879;48.660;9.116;2022-11-25T05:36:55;-0.30;99.90
15556;DHT22;7879;48.660;9.116;2022-11-25T05:39:22;-0.20;99.90
15556;DHT22;7879;48.660;9.116;2022-11-25T05:41:49;-0.20;99.90
15556;DHT22;7879;48.660;9.116;2022-11-25T05:44:16;-0.20;99.90
15556;DHT22;7879;48.660;9.116;2022-11-25T05:46:48;-0.20;99.90
15556;DHT22;7879;48.660;9.116;2022-11-25T05:49:16;-0.20;99.90
15556;DHT22;7879;48.660;9.116;2022-11-25T05:51:44;-0.10;99.90
15556;DHT22;7879;48.660;9.116;2022-11-25T05:54:11;-0.20;99.90
15556;DHT22;7879;48.660;9.116;2022-11-25T05:56:38;-0.30;99.90
15556;DHT22;7879;48.660;9.116;2022-11-25T05:59:05;-0.20;99.90
15556;DHT22;7879;48.660;9.116;2022-11-25T06:01:31;-0.20;99.90
15556;DHT22;7879;48.660;9.116;2022-11-25T06:04:03;-0.20;99.90
15556;DHT22;7879;48.660;9.116;2022-11-25T06:06:30;-0.30;99.90
15556;DHT22;7879;48.660;9.116;2022-11-25T06:08:57;-0.40;99.90
15556;DHT22;7879;48.660;9.116;2022-11-25T06:11:24;-0.40;99.90
15556;DHT22;7879;48.660;9.116;2022-11-25T06:13:51;-0.40;99.90
15556;DHT22;7879;48.660;9.116;2022-11-25T06:16:20;-0.40;99.90
15556;DHT22;7879;48.660;9.116;2022-11-25T06:18:48;-0.50;99.90
15556;DHT22;7879;48.660;9.116;2022-11-25T06:21:15;-0.50;99.90
15556;DHT22;7879;48.660;9.116;2022-11-25T06:23:42;-0.40;99.90
15556;DHT22;7879;48.660;9.116;2022-11-25T06:26:17;-0.50;99.90
15556;DHT22;7879;48.660;9.116;2022-11-25T06:28:45;-0.40;99.90
15556;DHT22;7879;48.660;9.116;2022-11-25T06:31:17;-0.50;99.90
15556;DHT22;7879;48.660;9.116;2022-11-25T06:33:53;-0.50;99.90
15556;DHT22;7879;48.660;9.116;2022-11-25T06:36:21;-0.40;99.90
15556;DHT22;7879;48.660;9.116;2022-11-25T06:38:50;-0.40;99.90
15556;DHT22;7879;48.660;9.116;2022-11-25T06:41:18;-0.40;99.90
15556;DHT22;7879;48.660;9.116;2022-11-25T06:43:45;-0.50;99.90
15556;DHT22;7879;48.660;9.116;2022-11-25T06:46:16;-0.40;99.90
15556;DHT22;7879;48.660;9.116;2022-11-25T06:48:53;-0.50;99.90
15556;DHT22;7879;48.660;9.116;2022-11-25T06:51:20;-0.50;99.90
15556;DHT22;7879;48.660;9.116;2022-11-25T06:53:47;-0.50;99.90
15556;DHT22;7879;48.660;9.116;2022-11-25T06:56:17;-0.50;99.90
15556;DHT22;7879;48.660;9.116;2022-11-25T06:58:44;-0.40;99.90
15556;DHT22;7879;48.660;9.116;2022-11-25T07:01:14;-0.50;99.90
15556;DHT22;7879;48.660;9.116;2022-11-25T07:03:42;-0.50;99.90
15556;DHT22;7879;48.660;9.116;2022-11-25T07:06:12;-0.50;99.90
15556;DHT22;7879;48.660;9.116;2022-11-25T07:08:39;-0.40;99.90
15556;DHT22;7879;48.660;9.116;2022-11-25T07:11:19;-0.30;99.90
15556;DHT22;7879;48.660;9.116;2022-11-25T07:13:46;-0.40;99.90
15556;DHT22;7879;48.660;9.116;2022-11-25T07:16:14;-0.30;99.90
15556;DHT22;7879;48.660;9.116;2022-11-25T07:18:41;-0.30;99.90
15556;DHT22;7879;48.660;9.116;2022-11-25T07:21:10;-0.20;99.90
15556;DHT22;7879;48.660;9.116;2022-11-25T07:23:39;-0.20;99.90
15556;DHT22;7879;48.660;9.116;2022-11-25T07:26:11;-0.10;99.90
15556;DHT22;7879;48.660;9.116;2022-11-25T07:28:39;-0.10;99.90
15556;DHT22;7879;48.660;9.116;2022-11-25T07:33:56;0.00;99.90
15556;DHT22;7879;48.660;9.116;2022-11-25T07:36:23;0.00;99.90
15556;DHT22;7879;48.660;9.116;2022-11-25T07:38:50;0.00;99.90
15556;DHT22;7879;48.660;9.116;2022-11-25T07:41:20;0.10;99.90
15556;DHT22;7879;48.660;9.116;2022-11-25T07:43:50;0.20;99.90
15556;DHT22;7879;48.660;9.116;2022-11-25T07:46:23;0.20;99.90
15556;DHT22;7879;48.660;9.116;2022-11-25T07:48:55;0.40;99.90
15556;DHT22;7879;48.660;9.116;2022-11-25T07:51:36;0.30;99.90
15556;DHT22;7879;48.660;9.116;2022-11-25T07:54:05;0.30;99.90
15556;DHT22;7879;48.660;9.116;2022-11-25T07:56:34;0.40;99.90
15556;DHT22;7879;48.660;9.116;2022-11-25T07:59:01;0.40;99.90
15556;DHT22;7879;48.660;9.116;2022-11-25T08:01:28;0.40;99.90
15556;DHT22;7879;48.660;9.116;2022-11-25T08:03:55;0.50;99.90
15556;DHT22;7879;48.660;9.116;2022-11-25T08:06:24;0.50;99.90
15556;DHT22;7879;48.660;9.116;2022-11-25T08:08:53;0.60;99.90
15556;DHT22;7879;48.660;9.116;2022-11-25T08:11:29;0.60;99.90
15556;DHT22;7879;48.660;9.116;2022-11-25T08:13:57;0.60;99.90
15556;DHT22;7879;48.660;9.116;2022-11-25T08:16:26;0.60;99.90
15556;DHT22;7879;48.660;9.116;2022-11-25T08:18:54;0.60;99.90
15556;DHT22;7879;48.660;9.116;2022-11-25T08:21:21;0.70;99.90
15556;DHT22;7879;48.660;9.116;2022-11-25T08:23:48;0.70;99.90
15556;DHT22;7879;48.660;9.116;2022-11-25T08:26:20;0.80;99.90
15556;DHT22;7879;48.660;9.116;2022-11-25T08:28:48;0.90;99.90
15556;DHT22;7879;48.660;9.116;2022-11-25T08:31:24;0.90;99.90
15556;DHT22;7879;48.660;9.116;2022-11-25T08:33:53;1.00;99.90
15556;DHT22;7879;48.660;9.116;2022-11-25T08:36:21;1.00;99.90
15556;DHT22;7879;48.660;9.116;2022-11-25T08:38:50;1.10;99.90
15556;DHT22;7879;48.660;9.116;2022-11-25T08:41:26;1.10;99.90
15556;DHT22;7879;48.660;9.116;2022-11-25T08:43:55;1.20;99.90
15556;DHT22;7879;48.660;9.116;2022-11-25T08:46:25;1.30;99.90
15556;DHT22;7879;48.660;9.116;2022-11-25T08:48:53;1.40;99.90
15556;DHT22;7879;48.660;9.116;2022-11-25T08:51:23;1.40;99.90
15556;DHT22;7879;48.660;9.116;2022-11-25T08:53:50;1.50;99.90
15556;DHT22;7879;48.660;9.116;2022-11-25T08:56:20;1.50;99.90
15556;DHT22;7879;48.660;9.116;2022-11-25T08:58:53;1.70;99.90
15556;DHT22;7879;48.660;9.116;2022-11-25T09:01:21;1.80;99.90
15556;DHT22;7879;48.660;9.116;2022-11-25T09:03:51;2.00;99.90
15556;DHT22;7879;48.660;9.116;2022-11-25T09:06:19;2.10;99.90
15556;DHT22;7879;48.660;9.116;2022-11-25T09:08:48;2.30;99.90
15556;DHT22;7879;48.660;9.116;2022-11-25T09:11:15;2.40;99.90
15556;DHT22;7879;48.660;9.116;2022-11-25T09:13:42;2.50;99.90
15556;DHT22;7879;48.660;9.116;2022-11-25T09:16:10;2.50;99.90
15556;DHT22;7879;48.660;9.116;2022-11-25T09:18:37;2.60;99.90
15556;DHT22;7879;48.660;9.116;2022-11-25T09:21:11;2.60;99.90
15556;DHT22;7879;48.660;9.116;2022-11-25T09:23:38;2.60;99.90
15556;DHT22;7879;48.660;9.116;2022-11-25T09:26:06;2.70;99.90
15556;DHT22;7879;48.660;9.116;2022-11-25T09:28:34;2.70;99.90
15556;DHT22;7879;48.660;9.116;2022-11-25T09:31:06;2.80;99.90
15556;DHT22;7879;48.660;9.116;2022-11-25T09:33:33;2.80;99.90
15556;DHT22;7879;48.660;9.116;2022-11-25T09:36:01;2.90;99.90
15556;DHT22;7879;48.660;9.116;2022-11-25T09:38:28;2.90;99.90
15556;DHT22;7879;48.660;9.116;2022-11-25T09:55:49;3.30;99.90
15556;DHT22;7879;48.660;9.116;2022-11-25T09:58:43;3.40;99.90
15556;DHT22;7879;48.660;9.116;2022-11-25T10:01:16;3.50;99.90
15556;DHT22;7879;48.660;9.116;2022-11-25T10:04:05;3.50;99.90
15556;DHT22;7879;48.660;9.116;2022-11-25T10:06:44;3.70;99.90
15556;DHT22;7879;48.660;9.116;2022-11-25T10:09:24;3.80;99.90
15556;DHT22;7879;48.660;9.116;2022-11-25T10:14:49;4.00;99.90
15556;DHT22;7879;48.660;9.116;2022-11-25T10:20:25;4.10;99.90
15556;DHT22;7879;48.660;9.116;2022-11-25T10:22:56;4.20;99.90
15556;DHT22;7879;48.660;9.116;2022-11-25T10:25:30;4.40;99.90
15556;DHT22;7879;48.660;9.116;2022-11-25T10:28:19;4.40;99.90
15556;DHT22;7879;48.660;9.116;2022-11-25T10:31:16;4.60;99.90
15556;DHT22;7879;48.660;9.116;2022-11-25T10:33:48;4.70;99.90
15556;DHT22;7879;48.660;9.116;2022-11-25T10:39:19;5.30;99.90
15556;DHT22;7879;48.660;9.116;2022-11-25T10:42:21;5.50;99.90
15556;DHT22;7879;48.660;9.116;2022-11-25T10:44:48;5.60;99.90
15556;DHT22;7879;48.660;9.116;2022-11-25T10:47:46;5.60;99.90
15556;DHT22;7879;48.660;9.116;2022-11-25T10:53:08;5.60;99.90
15556;DHT22;7879;48.660;9.116;2022-11-25T10:55:36;5.60;99.90
15556;DHT22;7879;48.660;9.116;2022-11-25T10:58:36;5.60;99.90
15556;DHT22;7879;48.660;9.116;2022-11-25T11:01:12;5.60;99.90
15556;DHT22;7879;48.660;9.116;2022-11-25T11:03:43;5.50;99.90
15556;DHT22;7879;48.660;9.116;2022-11-25T11:06:43;5.60;99.90
15556;DHT22;7879;48.660;9.116;2022-11-25T11:09:37;5.60;99.90
15556;DHT22;7879;48.660;9.116;2022-11-25T11:12:24;5.70;99.90
15556;DHT22;7879;48.660;9.116;2022-11-25T11:14:53;5.70;99.90
15556;DHT22;7879;48.660;9.116;2022-11-25T11:17:38;5.60;99.90
15556;DHT22;7879;48.660;9.116;2022-11-25T11:22:35;5.60;99.90
15556;DHT22;7879;48.660;9.116;2022-11-25T11:25:26;5.70;99.90
15556;DHT22;7879;48.660;9.116;2022-11-25T11:27:54;5.70;99.90
15556;DHT22;7879;48.660;9.116;2022-11-25T11:30:27;5.70;99.90
15556;DHT22;7879;48.660;9.116;2022-11-25T11:32:59;5.70;99.90
15556;DHT22;7879;48.660;9.116;2022-11-25T11:35:37;5.80;99.90
15556;DHT22;7879;48.660;9.116;2022-11-25T11:38:30;5.80;99.90
15556;DHT22;7879;48.660;9.116;2022-11-25T11:41:43;5.90;99.90
15556;DHT22;7879;48.660;9.116;2022-11-25T11:50:22;6.10;99.90
15556;DHT22;7879;48.660;9.116;2022-11-25T11:58:41;6.10;99.90
15556;DHT22;7879;48.660;9.116;2022-11-25T12:01:27;6.10;99.90
15556;DHT22;7879;48.660;9.116;2022-11-25T12:03:58;6.10;99.90
15556;DHT22;7879;48.660;9.116;2022-11-25T12:06:29;6.10;99.90
15556;DHT22;7879;48.660;9.116;2022-11-25T12:09:03;6.10;99.90
15556;DHT22;7879;48.660;9.116;2022-11-25T12:11:37;6.10;99.90
15556;DHT22;7879;48.660;9.116;2022-11-25T12:14:11;6.20;99.90
15556;DHT22;7879;48.660;9.116;2022-11-25T12:17:00;6.10;99.90
15556;DHT22;7879;48.660;9.116;2022-11-25T12:22:16;6.20;99.90
15556;DHT22;7879;48.660;9.116;2022-11-25T12:25:03;6.30;99.90
15556;DHT22;7879;48.660;9.116;2022-11-25T12:27:41;6.30;99.90
15556;DHT22;7879;48.660;9.116;2022-11-25T12:30:18;6.30;99.90
15556;DHT22;7879;48.660;9.116;2022-11-25T12:33:11;6.30;99.90
15556;DHT22;7879;48.660;9.116;2022-11-25T12:38:37;6.40;99.90
15556;DHT22;7879;48.660;9.116;2022-11-25T12:46:45;6.60;99.90
15556;DHT22;7879;48.660;9.116;2022-11-25T12:49:22;6.60;99.90
15556;DHT22;7879;48.660;9.116;2022-11-25T13:00:18;6.80;99.90
15556;DHT22;7879;48.660;9.116;2022-11-25T13:06:22;6.80;99.90
15556;DHT22;7879;48.660;9.116;2022-11-25T13:12:06;6.80;99.90
15556;DHT22;7879;48.660;9.116;2022-11-25T13:17:20;6.80;99.90
15556;DHT22;7879;48.660;9.116;2022-11-25T13:19:48;6.80;99.90
15556;DHT22;7879;48.660;9.116;2022-11-25T13:24:47;6.80;99.90
15556;DHT22;7879;48.660;9.116;2022-11-25T13:35:54;6.90;99.90
15556;DHT22;7879;48.660;9.116;2022-11-25T13:41:21;6.90;99.90
15556;DHT22;7879;48.660;9.116;2022-11-25T13:44:03;6.90;99.90
15556;DHT22;7879;48.660;9.116;2022-11-25T13:46:46;6.90;99.90
15556;DHT22;7879;48.660;9.116;2022-11-25T13:51:54;7.00;99.90
15556;DHT22;7879;48.660;9.116;2022-11-25T13:54:26;7.00;99.90
15556;DHT22;7879;48.660;9.116;2022-11-25T14:27:25;7.20;99.90
15556;DHT22;7879;48.660;9.116;2022-11-25T14:29:59;7.20;99.90
15556;DHT22;7879;48.660;9.116;2022-11-25T14:35:45;7.10;99.90
15556;DHT22;7879;48.660;9.116;2022-11-25T14:38:27;7.10;99.90
15556;DHT22;7879;48.660;9.116;2022-11-25T14:41:05;7.10;99.90
15556;DHT22;7879;48.660;9.116;2022-11-25T14:43:40;7.10;99.90
15556;DHT22;7879;48.660;9.116;2022-11-25T14:46:13;7.10;99.90
15556;DHT22;7879;48.660;9.116;2022-11-25T14:49:01;7.10;99.90
15556;DHT22;7879;48.660;9.116;2022-11-25T14:51:37;7.10;99.90
15556;DHT22;7879;48.660;9.116;2022-11-25T14:54:08;7.10;99.90
15556;DHT22;7879;48.660;9.116;2022-11-25T14:56:36;7.10;99.90
15556;DHT22;7879;48.660;9.116;2022-11-25T14:59:03;7.00;99.90
15556;DHT22;7879;48.660;9.116;2022-11-25T15:01:34;7.10;99.90
15556;DHT22;7879;48.660;9.116;2022-11-25T15:04:16;7.00;99.90
15556;DHT22;7879;48.660;9.116;2022-11-25T15:06:50;6.90;99.90
15556;DHT22;7879;48.660;9.116;2022-11-25T15:09:31;6.90;99.90
15556;DHT22;7879;48.660;9.116;2022-11-25T15:12:01;6.90;99.90
15556;DHT22;7879;48.660;9.116;2022-11-25T15:14:32;6.80;99.90
15556;DHT22;7879;48.660;9.116;2022-11-25T15:17:05;6.70;99.90
15556;DHT22;7879;48.660;9.116;2022-11-25T15:19:33;6.70;99.90
15556;DHT22;7879;48.660;9.116;2022-11-25T15:22:04;6.70;99.90
15556;DHT22;7879;48.660;9.116;2022-11-25T15:24:52;6.60;99.90
15556;DHT22;7879;48.660;9.116;2022-11-25T15:27:48;6.60;99.90
15556;DHT22;7879;48.660;9.116;2022-11-25T15:30:24;6.60;99.90
15556;DHT22;7879;48.660;9.116;2022-11-25T15:32:52;6.50;99.90
15556;DHT22;7879;48.660;9.116;2022-11-25T15:35:22;6.40;99.90
15556;DHT22;7879;48.660;9.116;2022-11-25T15:37:50;6.40;99.90
15556;DHT22;7879;48.660;9.116;2022-11-25T15:40:39;6.30;99.90
15556;DHT22;7879;48.660;9.116;2022-11-25T15:43:26;6.30;99.90
15556;DHT22;7879;48.660;9.116;2022-11-25T15:46:01;6.20;99.90
15556;DHT22;7879;48.660;9.116;2022-11-25T15:48:36;6.10;99.90
15556;DHT22;7879;48.660;9.116;2022-11-25T15:54:03;6.00;99.90
15556;DHT22;7879;48.660;9.116;2022-11-25T15:56:33;5.90;99.90
15556;DHT22;7879;48.660;9.116;2022-11-25T15:59:01;5.80;99.90
15556;DHT22;7879;48.660;9.116;2022-11-25T16:01:28;5.80;99.90
15556;DHT22;7879;48.660;9.116;2022-11-25T16:04:17;5.70;99.90
15556;DHT22;7879;48.660;9.116;2022-11-25T16:06:55;5.70;99.90
15556;DHT22;7879;48.660;9.116;2022-11-25T16:09:23;5.70;99.90
15556;DHT22;7879;48.660;9.116;2022-11-25T16:11:52;5.70;99.90
15556;DHT22;7879;48.660;9.116;2022-11-25T16:14:33;5.70;99.90
15556;DHT22;7879;48.660;9.116;2022-11-25T16:17:06;5.70;99.90
15556;DHT22;7879;48.660;9.116;2022-11-25T16:19:40;5.60;99.90
15556;DHT22;7879;48.660;9.116;2022-11-25T16:22:12;5.60;99.90
15556;DHT22;7879;48.660;9.116;2022-11-25T16:24:44;5.50;99.90
15556;DHT22;7879;48.660;9.116;2022-11-25T16:27:22;5.40;99.90
15556;DHT22;7879;48.660;9.116;2022-11-25T16:29:50;5.40;99.90
15556;DHT22;7879;48.660;9.116;2022-11-25T16:32:26;5.30;99.90
15556;DHT22;7879;48.660;9.116;2022-11-25T16:34:55;5.10;99.90
15556;DHT22;7879;48.660;9.116;2022-11-25T16:37:23;5.10;99.90
15556;DHT22;7879;48.660;9.116;2022-11-25T16:39:49;5.00;99.90
15556;DHT22;7879;48.660;9.116;2022-11-25T16:42:19;4.90;99.90
15556;DHT22;7879;48.660;9.116;2022-11-25T16:44:48;4.90;99.90
15556;DHT22;7879;48.660;9.116;2022-11-25T16:47:20;4.90;99.90
15556;DHT22;7879;48.660;9.116;2022-11-25T16:49:47;5.00;99.90
15556;DHT22;7879;48.660;9.116;2022-11-25T16:52:14;4.90;99.90
15556;DHT22;7879;48.660;9.116;2022-11-25T16:54:41;4.90;99.90
15556;DHT22;7879;48.660;9.116;2022-11-25T16:57:17;4.90;99.90
15556;DHT22;7879;48.660;9.116;2022-11-25T16:59:45;4.90;99.90
15556;DHT22;7879;48.660;9.116;2022-11-25T17:02:19;4.90;99.90
15556;DHT22;7879;48.660;9.116;2022-11-25T17:04:47;4.90;99.90
15556;DHT22;7879;48.660;9.116;2022-11-25T17:07:16;4.90;99.90
15556;DHT22;7879;48.660;9.116;2022-11-25T17:09:58;4.90;99.90
15556;DHT22;7879;48.660;9.116;2022-11-25T17:12:28;4.90;99.90
15556;DHT22;7879;48.660;9.116;2022-11-25T17:14:57;4.90;99.90
15556;DHT22;7879;48.660;9.116;2022-11-25T17:17:26;4.90;99.90
15556;DHT22;7879;48.660;9.116;2022-11-25T17:19:53;5.00;99.90
15556;DHT22;7879;48.660;9.116;2022-11-25T17:22:23;5.00;99.90
15556;DHT22;7879;48.660;9.116;2022-11-25T17:24:50;4.90;99.90
15556;DHT22;7879;48.660;9.116;2022-11-25T17:27:25;4.80;99.90
15556;DHT22;7879;48.660;9.116;2022-11-25T17:29:53;4.80;99.90
15556;DHT22;7879;48.660;9.116;2022-11-25T17:32:21;4.80;99.90
15556;DHT22;7879;48.660;9.116;2022-11-25T17:34:49;4.80;99.90
15556;DHT22;7879;48.660;9.116;2022-11-25T17:37:18;4.90;99.90
15556;DHT22;7879;48.660;9.116;2022-11-25T17:39:44;4.90;99.90
15556;DHT22;7879;48.660;9.116;2022-11-25T17:42:16;4.90;99.90
15556;DHT22;7879;48.660;9.116;2022-11-25T17:44:44;4.80;99.90
15556;DHT22;7879;48.660;9.116;2022-11-25T17:47:18;4.90;99.90
15556;DHT22;7879;48.660;9.116;2022-11-25T17:49:45;4.90;99.90
15556;DHT22;7879;48.660;9.116;2022-11-25T17:52:11;4.90;99.90
15556;DHT22;7879;48.660;9.116;2022-11-25T17:54:38;4.80;99.90
15556;DHT22;7879;48.660;9.116;2022-11-25T17:57:10;4.90;99.90
15556;DHT22;7879;48.660;9.116;2022-11-25T17:59:37;4.90;99.90
15556;DHT22;7879;48.660;9.116;2022-11-25T18:02:14;4.80;99.90
15556;DHT22;7879;48.660;9.116;2022-11-25T18:04:41;4.90;99.90
15556;DHT22;7879;48.660;9.116;2022-11-25T18:07:09;4.80;99.90
15556;DHT22;7879;48.660;9.116;2022-11-25T18:09:36;4.80;99.90
15556;DHT22;7879;48.660;9.116;2022-11-25T18:12:08;4.80;99.90
15556;DHT22;7879;48.660;9.116;2022-11-25T18:14:36;4.80;99.90
15556;DHT22;7879;48.660;9.116;2022-11-25T18:17:06;4.70;99.90
15556;DHT22;7879;48.660;9.116;2022-11-25T18:19:33;4.80;99.90
15556;DHT22;7879;48.660;9.116;2022-11-25T18:22:30;4.70;99.90
15556;DHT22;7879;48.660;9.116;2022-11-25T18:24:56;4.80;99.90
15556;DHT22;7879;48.660;9.116;2022-11-25T18:27:27;4.70;99.90
15556;DHT22;7879;48.660;9.116;2022-11-25T18:29:55;4.70;99.90
15556;DHT22;7879;48.660;9.116;2022-11-25T18:32:24;4.70;99.90
15556;DHT22;7879;48.660;9.116;2022-11-25T18:34:51;4.70;99.90
15556;DHT22;7879;48.660;9.116;2022-11-25T18:37:18;4.70;99.90
15556;DHT22;7879;48.660;9.116;2022-11-25T18:39:44;4.80;99.90
15556;DHT22;7879;48.660;9.116;2022-11-25T18:42:21;4.80;99.90
15556;DHT22;7879;48.660;9.116;2022-11-25T18:44:49;4.80;99.90
15556;DHT22;7879;48.660;9.116;2022-11-25T18:47:16;4.70;99.90
15556;DHT22;7879;48.660;9.116;2022-11-25T18:49:42;4.70;99.90
15556;DHT22;7879;48.660;9.116;2022-11-25T18:52:09;4.70;99.90